createdAt,value
2024-05-09T00:02:08.571Z,6.43
2024-05-09T00:04:35.936Z,7.10
2024-05-09T00:07:02.735Z,7.47
2024-05-09T00:09:29.403Z,7.03
2024-05-09T00:11:56.192Z,7.30
2024-05-09T00:14:22.915Z,6.95
2024-05-09T00:16:49.759Z,6.20
2024-05-09T00:19:16.658Z,5.75
2024-05-09T00:21:43.897Z,6.03
2024-05-09T00:24:10.512Z,6.47
2024-05-09T00:26:37.233Z,7.05
2024-05-09T00:29:03.966Z,6.88
2024-05-09T00:31:30.626Z,6.95
2024-05-09T00:33:57.588Z,6.78
2024-05-09T00:36:24.375Z,6.03
2024-05-09T00:38:51.017Z,6.03
2024-05-09T00:41:19.670Z,5.80
2024-05-09T00:43:46.684Z,5.72
2024-05-09T00:46:13.887Z,7.00
2024-05-09T00:48:41.160Z,7.07
2024-05-09T00:51:08.137Z,6.68
2024-05-09T00:53:35.077Z,6.82
2024-05-09T00:56:04.496Z,6.63
2024-05-09T00:58:31.709Z,6.82
2024-05-09T01:01:00.993Z,6.25
2024-05-09T01:03:28.083Z,5.85
2024-05-09T01:05:54.892Z,6.32
2024-05-09T01:08:21.792Z,6.65
2024-05-09T01:10:48.915Z,4.80
2024-05-09T01:13:15.796Z,5.45
2024-05-09T01:15:43.177Z,4.90
2024-05-09T01:18:12.451Z,5.32
2024-05-09T01:20:43.209Z,4.93
2024-05-09T01:23:14.033Z,6.05
2024-05-09T01:25:42.604Z,5.35
2024-05-09T01:28:09.315Z,5.97
2024-05-09T01:30:37.635Z,6.43
2024-05-09T01:33:07.896Z,6.45
2024-05-09T01:35:36.574Z,6.10
2024-05-09T01:38:03.612Z,5.68
2024-05-09T01:40:37.245Z,6.28
2024-05-09T01:43:06.878Z,5.95
2024-05-09T01:45:33.763Z,5.72
2024-05-09T01:48:01.013Z,5.88
2024-05-09T01:50:37.486Z,6.13
2024-05-09T01:53:08.538Z,5.60
2024-05-09T01:55:35.321Z,5.18
2024-05-09T01:58:02.012Z,5.07
2024-05-09T02:00:37.381Z,6.05
2024-05-09T02:03:15.869Z,5.25
2024-05-09T02:05:50.027Z,5.88
2024-05-09T02:08:19.043Z,5.50
2024-05-09T02:13:15.172Z,5.25
2024-05-09T02:15:41.959Z,5.70
2024-05-09T02:18:09.100Z,5.85
2024-05-09T02:20:40.757Z,6.93
2024-05-09T02:23:08.971Z,5.80
2024-05-09T02:25:35.872Z,5.68
2024-05-09T02:28:02.773Z,5.35
2024-05-09T02:30:38.729Z,5.53
2024-05-09T02:33:13.011Z,4.63
2024-05-09T02:35:41.292Z,5.82
2024-05-09T02:38:09.449Z,6.28
2024-05-09T02:40:38.654Z,5.88
2024-05-09T02:43:08.403Z,6.15
2024-05-09T02:45:36.392Z,5.78
2024-05-09T02:48:03.337Z,5.85
2024-05-09T02:50:37.216Z,4.90
2024-05-09T02:53:09.703Z,6.13
2024-05-09T02:55:39.826Z,5.90
2024-05-09T02:58:10.405Z,6.20
2024-05-09T03:00:40.823Z,5.63
2024-05-09T03:03:12.510Z,6.00
2024-05-09T03:05:41.510Z,5.68
2024-05-09T03:08:09.913Z,5.78
2024-05-09T03:10:38.645Z,5.65
2024-05-09T03:13:14.400Z,4.97
2024-05-09T03:15:42.910Z,6.50
2024-05-09T03:18:10.131Z,6.80
2024-05-09T03:20:38.201Z,5.78
2024-05-09T03:23:07.820Z,5.82
2024-05-09T03:25:35.324Z,5.20
2024-05-09T03:28:02.041Z,5.07
2024-05-09T03:30:38.940Z,5.40
2024-05-09T03:33:15.525Z,5.50
2024-05-09T03:35:46.417Z,5.35
2024-05-09T03:38:13.447Z,5.82
2024-05-09T03:40:47.918Z,7.15
2024-05-09T03:43:15.425Z,6.60
2024-05-09T03:45:42.972Z,6.15
2024-05-09T03:48:10.003Z,5.88
2024-05-09T03:50:37.449Z,5.65
2024-05-09T03:53:04.814Z,5.90
2024-05-09T03:55:31.602Z,6.85
2024-05-09T03:57:58.283Z,7.50
2024-05-09T04:00:31.564Z,7.55
2024-05-09T04:03:06.263Z,8.13
2024-05-09T04:05:34.950Z,8.48
2024-05-09T04:08:01.970Z,7.65
2024-05-09T04:10:33.459Z,6.88
2024-05-09T04:13:02.181Z,6.47
2024-05-09T04:15:29.024Z,7.55
2024-05-09T04:17:56.307Z,7.88
2024-05-09T04:20:35.547Z,8.23
2024-05-09T04:23:07.091Z,8.02
2024-05-09T04:25:34.509Z,8.20
2024-05-09T04:28:01.211Z,7.57
2024-05-09T04:30:36.479Z,8.60
2024-05-09T04:33:07.482Z,8.75
2024-05-09T04:35:35.588Z,8.90
2024-05-09T04:38:02.403Z,8.57
2024-05-09T04:40:33.951Z,9.07
2024-05-09T04:43:03.746Z,8.85
2024-05-09T04:45:30.582Z,8.20
2024-05-09T04:47:57.696Z,7.85
2024-05-09T04:50:33.872Z,8.40
2024-05-09T04:53:05.030Z,8.80
2024-05-09T04:55:33.119Z,9.10
2024-05-09T04:57:59.999Z,8.88
2024-05-09T05:00:34.664Z,8.98
2024-05-09T05:03:10.548Z,9.43
2024-05-09T05:08:18.433Z,8.93
2024-05-09T05:10:47.728Z,8.82
2024-05-09T05:15:52.055Z,9.43
2024-05-09T05:18:19.310Z,9.38
2024-05-09T05:20:46.368Z,8.48
2024-05-09T05:23:15.281Z,8.57
2024-05-09T05:25:43.118Z,8.88
2024-05-09T05:28:10.678Z,8.88
2024-05-09T05:30:38.567Z,10.50
2024-05-09T05:33:06.532Z,11.32
2024-05-09T05:35:34.851Z,11.32
2024-05-09T05:38:02.044Z,12.30
2024-05-09T05:40:36.201Z,12.27
2024-05-09T05:43:09.306Z,12.98
2024-05-09T05:45:36.558Z,12.07
2024-05-09T05:48:06.064Z,12.88
2024-05-09T05:50:37.038Z,12.57
2024-05-09T05:53:09.591Z,13.13
2024-05-09T05:55:37.832Z,11.05
2024-05-09T05:58:04.780Z,13.85
2024-05-09T06:03:01.621Z,13.02
2024-05-09T06:05:28.765Z,11.55
2024-05-09T06:07:55.598Z,11.90
2024-05-09T06:10:26.303Z,13.07
2024-05-09T06:13:01.493Z,12.25
2024-05-09T06:15:28.143Z,12.77
2024-05-09T06:17:54.923Z,11.75
2024-05-09T06:20:31.277Z,13.15
2024-05-09T06:23:03.241Z,12.77
2024-05-09T06:25:30.173Z,11.68
2024-05-09T06:27:56.875Z,12.52
2024-05-09T06:30:30.407Z,13.23
2024-05-09T06:33:05.831Z,12.32
2024-05-09T06:35:33.827Z,13.18
2024-05-09T06:38:00.977Z,12.35
2024-05-09T06:40:36.258Z,12.38
2024-05-09T06:43:10.292Z,12.63
2024-05-09T06:45:37.110Z,12.40
2024-05-09T06:48:04.344Z,12.07
2024-05-09T06:50:37.007Z,11.93
2024-05-09T06:53:05.250Z,12.23
2024-05-09T06:55:32.065Z,12.35
2024-05-09T06:57:58.844Z,12.15
2024-05-09T07:00:34.450Z,12.25
2024-05-09T07:03:17.130Z,12.02
2024-05-09T07:05:47.227Z,12.00
2024-05-09T07:08:15.236Z,11.80
2024-05-09T07:10:42.251Z,11.68
2024-05-09T07:13:09.960Z,11.88
2024-05-09T07:15:36.764Z,12.57
2024-05-09T07:18:20.367Z,12.48
2024-05-09T07:20:49.303Z,12.55
2024-05-09T07:23:17.187Z,11.48
2024-05-09T07:25:43.984Z,11.82
2024-05-09T07:28:13.595Z,12.75
2024-05-09T07:30:40.350Z,12.68
2024-05-09T07:33:07.167Z,12.05
2024-05-09T07:35:34.235Z,13.02
2024-05-09T07:38:01.284Z,13.00
2024-05-09T07:40:34.794Z,12.23
2024-05-09T07:43:07.923Z,12.98
2024-05-09T07:52:32.532Z,11.65
2024-05-09T07:55:53.914Z,13.13
2024-05-09T07:58:20.766Z,13.48
2024-05-09T08:00:47.528Z,13.25
2024-05-09T08:03:14.309Z,13.07
2024-05-09T08:05:41.268Z,11.13
2024-05-09T08:08:08.065Z,11.60
2024-05-09T08:10:35.272Z,11.75
2024-05-09T08:13:02.123Z,13.13
2024-05-09T08:15:28.982Z,11.82
2024-05-09T08:17:56.130Z,13.27
2024-05-09T08:20:30.771Z,13.18
2024-05-09T08:23:00.437Z,12.20
2024-05-09T08:25:27.219Z,13.43
2024-05-09T08:27:54.018Z,12.63
2024-05-09T08:30:25.441Z,12.05
2024-05-09T08:32:59.325Z,11.70
2024-05-09T08:35:26.076Z,11.82
2024-05-09T08:37:53.626Z,11.73
2024-05-09T08:40:30.436Z,11.85
2024-05-09T08:43:02.631Z,11.38
2024-05-09T08:45:30.101Z,10.90
2024-05-09T08:47:59.700Z,10.68
2024-05-09T08:50:35.355Z,11.10
2024-05-09T08:53:05.659Z,10.95
2024-05-09T08:55:32.609Z,10.50
2024-05-09T08:58:01.464Z,10.98
2024-05-09T09:00:36.113Z,10.35
2024-05-09T09:03:09.114Z,10.27
2024-05-09T09:05:40.086Z,10.40
2024-05-09T09:08:08.636Z,10.25
2024-05-09T09:10:36.001Z,11.07
2024-05-09T09:13:09.538Z,10.85
2024-05-09T09:15:47.681Z,11.20
2024-05-09T09:18:16.208Z,9.30
2024-05-09T09:20:43.800Z,10.68
2024-05-09T09:23:10.667Z,10.05
2024-05-09T09:25:40.852Z,10.43
2024-05-09T09:28:08.350Z,9.85
2024-05-09T09:30:38.919Z,10.90
2024-05-09T09:33:06.818Z,9.25
2024-05-09T09:35:34.502Z,9.93
2024-05-09T09:38:03.362Z,10.80
2024-05-09T09:40:38.957Z,9.77
2024-05-09T09:43:19.404Z,9.25
2024-05-09T09:45:49.861Z,10.10
2024-05-09T09:48:17.067Z,9.77
2024-05-09T09:50:45.416Z,10.00
2024-05-09T09:53:13.820Z,9.48
2024-05-09T09:55:41.849Z,9.82
2024-05-09T09:58:13.246Z,9.07
2024-05-09T10:00:41.105Z,8.52
2024-05-09T10:03:07.908Z,7.85
2024-05-09T10:05:35.313Z,8.57
2024-05-09T10:08:07.471Z,9.05
2024-05-09T10:10:35.727Z,9.30
2024-05-09T10:13:07.059Z,9.07
2024-05-09T10:15:53.748Z,8.48
2024-05-09T10:20:56.079Z,7.13
2024-05-09T10:23:30.515Z,7.20
2024-05-09T10:26:05.329Z,6.90
2024-05-09T10:28:33.926Z,7.45
2024-05-09T10:31:07.132Z,6.65
2024-05-09T10:33:49.184Z,7.68
2024-05-09T10:36:23.416Z,7.50
2024-05-09T10:38:50.966Z,8.18
2024-05-09T10:41:18.546Z,7.82
2024-05-09T10:43:45.245Z,7.10
2024-05-09T10:46:12.433Z,6.72
2024-05-09T10:48:41.795Z,6.43
2024-05-09T10:51:09.208Z,6.72
2024-05-09T10:53:46.761Z,7.60
2024-05-09T10:56:14.351Z,7.18
2024-05-09T10:58:41.247Z,7.15
2024-05-09T11:01:09.328Z,6.22
2024-05-09T11:03:36.991Z,6.40
2024-05-09T11:06:04.389Z,6.80
2024-05-09T11:08:32.584Z,6.70
2024-05-09T11:11:00.153Z,6.78
2024-05-09T11:13:30.829Z,8.10
2024-05-09T11:15:59.154Z,7.85
2024-05-09T11:18:28.985Z,9.02
2024-05-09T11:20:58.494Z,7.70
2024-05-09T11:23:27.409Z,7.65
2024-05-09T11:25:55.974Z,7.88
2024-05-09T11:28:23.334Z,7.68
2024-05-09T11:30:50.959Z,7.65
2024-05-09T11:33:19.563Z,8.85
2024-05-09T11:35:47.341Z,8.93
2024-05-09T11:38:14.069Z,8.45
2024-05-09T11:40:40.947Z,8.63
2024-05-09T11:43:07.751Z,8.32
2024-05-09T11:45:34.664Z,7.80
2024-05-09T11:48:01.785Z,7.55
2024-05-09T11:50:33.117Z,8.10
2024-05-09T11:53:02.500Z,8.52
2024-05-09T11:55:29.325Z,8.35
2024-05-09T11:57:56.938Z,7.20
2024-05-09T12:00:32.979Z,8.02
2024-05-09T12:03:05.191Z,7.47
2024-05-09T12:05:33.133Z,7.43
2024-05-09T12:08:00.846Z,7.55
2024-05-09T12:10:33.187Z,7.47
2024-05-09T12:13:04.692Z,7.90
2024-05-09T12:15:32.991Z,9.68
2024-05-09T12:18:02.787Z,10.35
2024-05-09T12:20:36.706Z,9.43
2024-05-09T12:23:06.227Z,8.40
2024-05-09T12:25:33.095Z,8.35
2024-05-09T12:28:00.200Z,8.77
2024-05-09T12:30:35.521Z,10.10
2024-05-09T12:33:06.767Z,9.07
2024-05-09T12:35:33.534Z,8.85
2024-05-09T12:38:00.404Z,8.93
2024-05-09T12:40:35.409Z,9.55
2024-05-09T12:43:06.374Z,10.20
2024-05-09T12:45:33.401Z,10.02
2024-05-09T12:48:00.562Z,7.90
2024-05-09T12:50:32.532Z,9.45
2024-05-09T12:53:01.572Z,9.15
2024-05-09T12:55:31.846Z,7.10
2024-05-09T12:58:04.542Z,8.10
2024-05-09T13:00:33.969Z,8.45
2024-05-09T13:03:01.556Z,8.00
2024-05-09T13:05:28.839Z,7.80
2024-05-09T13:07:56.858Z,7.78
2024-05-09T13:10:30.958Z,7.38
2024-05-09T13:13:00.177Z,7.50
2024-05-09T13:15:27.387Z,9.27
2024-05-09T13:17:56.404Z,8.75
2024-05-09T13:20:31.269Z,9.57
2024-05-09T13:23:02.189Z,8.60
2024-05-09T13:25:29.101Z,9.02
2024-05-09T13:27:56.972Z,9.57
2024-05-09T13:30:29.920Z,9.32
2024-05-09T13:33:06.470Z,9.85
2024-05-09T13:35:35.347Z,8.27
2024-05-09T13:38:03.191Z,8.80
2024-05-09T13:40:34.334Z,8.02
2024-05-09T13:43:04.521Z,8.65
2024-05-09T13:45:31.686Z,9.18
2024-05-09T13:47:59.058Z,8.70
2024-05-09T13:50:32.830Z,9.38
2024-05-09T13:53:02.735Z,8.95
2024-05-09T13:55:29.475Z,9.43
2024-05-09T13:57:56.761Z,8.18
2024-05-09T14:00:37.730Z,10.45
2024-05-09T14:03:10.350Z,8.95
2024-05-09T14:05:37.186Z,9.40
2024-05-09T14:08:04.309Z,8.48
2024-05-09T14:10:32.327Z,9.45
2024-05-09T14:15:26.823Z,8.85
2024-05-09T14:17:54.346Z,9.93
2024-05-09T14:20:30.331Z,8.63
2024-05-09T14:22:59.556Z,8.73
2024-05-09T14:25:31.854Z,9.18
2024-05-09T14:27:58.902Z,8.32
2024-05-09T14:30:34.185Z,9.63
2024-05-09T14:33:04.759Z,8.75
2024-05-09T14:35:31.721Z,7.95
2024-05-09T14:37:58.884Z,7.80
2024-05-09T14:40:36.252Z,8.38
2024-05-09T14:43:08.131Z,7.55
2024-05-09T14:45:35.300Z,7.07
2024-05-09T14:48:03.315Z,6.97
2024-05-09T14:50:36.061Z,8.10
2024-05-09T14:53:07.093Z,7.05
2024-05-09T14:55:35.925Z,7.65
2024-05-09T14:58:03.844Z,7.47
2024-05-09T15:00:35.827Z,7.57
2024-05-09T15:03:04.909Z,7.75
2024-05-09T15:05:31.882Z,7.40
2024-05-09T15:07:59.415Z,7.13
2024-05-09T15:10:33.964Z,6.43
2024-05-09T15:13:03.091Z,6.43
2024-05-09T15:15:30.136Z,6.70
2024-05-09T15:17:57.051Z,7.32
2024-05-09T15:20:31.442Z,7.53
2024-05-09T15:23:02.414Z,6.90
2024-05-09T15:25:29.477Z,7.03
2024-05-09T15:27:56.558Z,5.88
2024-05-09T15:30:30.605Z,4.72
2024-05-09T15:33:00.124Z,4.95
2024-05-09T15:35:27.063Z,4.88
2024-05-09T15:37:53.899Z,5.38
2024-05-09T15:40:30.587Z,5.03
2024-05-09T15:43:04.782Z,5.72
2024-05-09T15:45:32.039Z,5.70
2024-05-09T15:47:59.305Z,6.40
2024-05-09T15:50:35.661Z,6.07
2024-05-09T15:53:07.032Z,6.95
2024-05-09T15:55:34.883Z,5.80
2024-05-09T15:58:02.769Z,5.70
2024-05-09T16:00:37.408Z,6.10
2024-05-09T16:03:08.463Z,5.30
2024-05-09T16:05:35.483Z,4.90
2024-05-09T16:08:02.778Z,4.90
2024-05-09T16:10:33.029Z,5.00
2024-05-09T16:13:02.382Z,4.57
2024-05-09T16:15:29.842Z,4.82
2024-05-09T16:17:56.759Z,4.60
2024-05-09T16:22:53.562Z,4.80
2024-05-09T16:25:20.465Z,5.00
2024-05-09T16:27:47.419Z,4.63
2024-05-09T16:30:21.318Z,3.97
2024-05-09T16:32:55.294Z,4.25
2024-05-09T16:35:22.082Z,4.28
2024-05-09T16:37:49.296Z,4.40
2024-05-09T16:40:25.229Z,4.53
2024-05-09T16:43:03.282Z,5.05
2024-05-09T16:45:30.258Z,4.35
2024-05-09T16:47:57.325Z,4.35
2024-05-09T16:50:29.418Z,4.75
2024-05-09T16:52:59.591Z,4.50
2024-05-09T16:55:26.407Z,4.88
2024-05-09T16:57:53.291Z,5.07
2024-05-09T17:00:31.024Z,5.60
2024-05-09T17:03:06.644Z,4.95
2024-05-09T17:05:34.477Z,4.57
2024-05-09T17:08:01.714Z,4.72
2024-05-09T17:10:32.957Z,4.72
2024-05-09T17:13:06.285Z,5.43
2024-05-09T17:15:34.836Z,4.90
2024-05-09T17:18:02.182Z,5.40
2024-05-09T17:20:33.706Z,4.20
2024-05-09T17:23:04.011Z,4.97
2024-05-09T17:25:30.866Z,5.00
2024-05-09T17:27:59.590Z,5.47
2024-05-09T17:30:32.421Z,5.75
2024-05-09T17:33:07.976Z,5.40
2024-05-09T17:35:36.332Z,5.45
2024-05-09T17:38:03.787Z,6.20
2024-05-09T17:40:34.258Z,5.80
2024-05-09T17:43:04.285Z,5.53
2024-05-09T17:45:31.963Z,5.82
2024-05-09T17:47:59.178Z,5.63
2024-05-09T17:50:31.919Z,5.70
2024-05-09T17:53:03.126Z,6.10
2024-05-09T17:55:30.121Z,5.85
2024-05-09T17:57:57.176Z,4.93
2024-05-09T18:00:36.123Z,5.80
2024-05-09T18:03:06.736Z,5.50
2024-05-09T18:05:35.876Z,5.32
2024-05-09T18:08:03.560Z,5.45
2024-05-09T18:10:36.622Z,4.85
2024-05-09T18:13:06.429Z,5.93
2024-05-09T18:15:33.656Z,5.43
2024-05-09T18:18:04.503Z,5.25
2024-05-09T18:20:40.209Z,5.28
2024-05-09T18:23:11.554Z,5.70
2024-05-09T18:25:38.348Z,5.63
2024-05-09T18:28:06.330Z,6.40
2024-05-09T18:30:36.148Z,6.30
2024-05-09T18:33:06.414Z,6.78
2024-05-09T18:35:34.584Z,6.75
2024-05-09T18:38:01.327Z,7.15
2024-05-09T18:40:33.845Z,6.70
2024-05-09T18:43:04.702Z,6.88
2024-05-09T18:45:32.541Z,7.05
2024-05-09T18:48:00.278Z,7.53
2024-05-09T18:50:34.648Z,7.13
2024-05-09T18:53:08.467Z,7.78
2024-05-09T18:55:35.822Z,7.60
2024-05-09T18:58:03.857Z,7.03
2024-05-09T19:00:35.525Z,7.82
2024-05-09T19:03:09.591Z,8.00
2024-05-09T19:05:39.364Z,8.18
2024-05-09T19:08:07.832Z,8.38
2024-05-09T19:10:36.013Z,8.27
2024-05-09T19:13:08.252Z,7.75
2024-05-09T19:15:39.233Z,8.30
2024-05-09T19:18:06.636Z,8.88
2024-05-09T19:20:35.394Z,8.45
2024-05-09T19:23:03.944Z,8.63
2024-05-09T19:25:30.878Z,8.40
2024-05-09T19:27:57.798Z,8.23
2024-05-09T19:30:33.763Z,8.48
2024-05-09T19:33:06.325Z,8.25
2024-05-09T19:35:33.255Z,7.53
2024-05-09T19:38:00.199Z,8.00
2024-05-09T19:40:31.537Z,8.43
2024-05-09T19:43:01.755Z,8.05
2024-05-09T19:45:29.211Z,7.55
2024-05-09T19:47:56.311Z,7.80
2024-05-09T19:50:32.123Z,7.60
2024-05-09T19:53:06.721Z,7.43
2024-05-09T19:55:33.777Z,7.00
2024-05-09T19:58:04.863Z,6.75
2024-05-09T20:00:39.673Z,6.85
2024-05-09T20:03:09.239Z,7.22
2024-05-09T20:05:37.255Z,6.90
2024-05-09T20:08:05.118Z,6.53
2024-05-09T20:10:34.397Z,6.13
2024-05-09T20:13:03.015Z,6.10
2024-05-09T20:15:31.255Z,6.13
2024-05-09T20:17:58.313Z,6.68
2024-05-09T20:20:33.653Z,6.53
2024-05-09T20:23:06.103Z,6.60
2024-05-09T20:25:32.794Z,6.25
2024-05-09T20:27:59.487Z,6.70
2024-05-09T20:30:31.840Z,6.53
2024-05-09T20:33:02.470Z,6.78
2024-05-09T20:35:32.450Z,7.53
2024-05-09T20:37:59.672Z,7.07
2024-05-09T20:40:32.629Z,6.32
2024-05-09T20:43:03.091Z,7.32
2024-05-09T20:45:29.912Z,6.93
2024-05-09T20:47:57.574Z,6.63
2024-05-09T20:50:35.090Z,7.65
2024-05-09T20:53:05.818Z,7.50
2024-05-09T20:55:32.467Z,7.30
2024-05-09T20:57:59.292Z,7.22
2024-05-09T21:00:34.956Z,7.55
2024-05-09T21:03:07.214Z,7.20
2024-05-09T21:05:34.997Z,7.30
2024-05-09T21:08:02.384Z,7.22
2024-05-09T21:10:32.899Z,7.70
2024-05-09T21:13:02.076Z,8.10
2024-05-09T21:15:29.478Z,7.25
2024-05-09T21:17:56.329Z,7.60
2024-05-09T21:20:28.892Z,7.20
2024-05-09T21:22:58.533Z,7.53
2024-05-09T21:25:25.407Z,7.90
2024-05-09T21:27:52.330Z,7.63
2024-05-09T21:30:28.224Z,6.65
2024-05-09T21:33:04.992Z,7.20
2024-05-09T21:35:31.987Z,6.68
2024-05-09T21:37:58.682Z,6.47
2024-05-09T21:40:31.650Z,6.93
2024-05-09T21:43:01.850Z,7.57
2024-05-09T21:45:28.582Z,6.55
2024-05-09T21:47:55.525Z,7.28
2024-05-09T21:50:28.378Z,6.97
2024-05-09T21:53:03.005Z,7.10
2024-05-09T21:55:30.128Z,7.50
2024-05-09T21:57:57.043Z,7.28
2024-05-09T22:00:32.044Z,6.93
2024-05-09T22:03:03.495Z,7.15
2024-05-09T22:05:30.853Z,7.82
2024-05-09T22:07:57.706Z,7.75
2024-05-09T22:10:30.808Z,7.13
2024-05-09T22:13:01.448Z,7.18
2024-05-09T22:15:28.296Z,6.78
2024-05-09T22:17:56.467Z,7.38
2024-05-09T22:20:32.863Z,7.40
2024-05-09T22:23:04.212Z,6.85
2024-05-09T22:25:32.142Z,6.93
2024-05-09T22:28:00.108Z,6.78
2024-05-09T22:30:35.145Z,6.88
2024-05-09T22:33:06.334Z,6.15
2024-05-09T22:35:33.303Z,5.68
2024-05-09T22:38:00.029Z,5.53
2024-05-09T22:40:38.216Z,5.93
2024-05-09T22:43:13.233Z,6.40
2024-05-09T22:45:40.158Z,6.55
2024-05-09T22:48:08.267Z,6.80
2024-05-09T22:50:35.189Z,7.30
2024-05-09T22:53:02.087Z,7.15
2024-05-09T22:55:28.995Z,6.50
2024-05-09T22:57:55.964Z,6.50
2024-05-09T23:00:30.941Z,6.53
2024-05-09T23:03:00.452Z,6.80
2024-05-09T23:05:27.579Z,7.35
2024-05-09T23:07:54.375Z,7.22
2024-05-09T23:10:28.311Z,7.60
2024-05-09T23:13:01.532Z,7.55
2024-05-09T23:15:28.440Z,7.30
2024-05-09T23:17:55.518Z,6.00
2024-05-09T23:20:33.059Z,6.53
2024-05-09T23:23:04.920Z,6.70
2024-05-09T23:25:31.578Z,5.70
2024-05-09T23:27:58.393Z,4.97
2024-05-09T23:30:34.241Z,5.38
2024-05-09T23:33:05.786Z,6.40
2024-05-09T23:35:32.651Z,6.90
2024-05-09T23:37:59.631Z,6.47
2024-05-09T23:40:37.058Z,6.78
2024-05-09T23:43:07.215Z,6.70
2024-05-09T23:45:34.286Z,6.63
2024-05-09T23:48:01.504Z,7.00
2024-05-09T23:50:34.591Z,7.07
2024-05-09T23:53:04.637Z,7.25
2024-05-09T23:55:32.041Z,7.20
2024-05-09T23:57:59.191Z,7.10
